• Join FlightAware (Why Join?)
  • Login
  • US Flag 
12:52PM EDT


 

Airport Tracker/Info


-or-


 

Live Flight TrackerFlight Track Log ✈ FLG3800 ✈ 27-Apr-2013 ✈ KAZO - KDTW

Flight Track Log - Related Links

Times and Time Zones

All times are in EDT time to prevent confusion due to time zone crossing. See the FLG3800 flight status page for this flight to view local times or setup timezone preferences in your user account.

Time Position Orientation Groundspeed Altitude Reporting Facility
EDT Latitude Longitude Course Direction KTS MPH feet Rate Location/Type
08:08AM 42.2033 -85.5372 106° East 158 182 2,400  Level Chicago Center
08:09AM 42.1719 -85.4589 118° Southeast 206 237 4,700 2,400 Climbing Chicago Center
08:10AM 42.1564 -85.3633 102° East 247 284 7,300 2,520 Climbing Chicago Center
08:11AM 42.1582 -85.2105 106° East  Level FlightAware Approximate
08:11AM 42.1519 -85.3228 98° East 253 291 8,600  Level Cleveland Center
08:12AM 42.1399 -85.1246 106° East  Level FlightAware Approximate
08:12AM 42.1353 -85.2208 102° East 266 306 11,000  Level Cleveland Center
08:13AM 42.1214 -85.0387 106° East  Level FlightAware Approximate
08:13AM 42.1169 -85.1044 102° East 293 337 11,000  Level Cleveland Center
08:14AM 42.0967 -84.9772 102° East 321 369 11,000  Level Cleveland Center
08:15AM 42.0767 -84.8469 102° East 342 394 11,000  Level Cleveland Center
08:16AM 42.0481 -84.7192 107° East 352 405 11,000  Level Cleveland Center
08:17AM 42.0067 -84.5881 113° Southeast 352 405 11,000  Level Cleveland Center
08:18AM 41.9672 -84.4681 114° Southeast 352 405 11,000  Level Cleveland Center
08:19AM 41.9275 -84.3456 114° Southeast 352 405 11,000  Level Cleveland Center
08:19AM 41.9083 -84.2944 117° Southeast 350 403 11,000  Level Cleveland Center
08:20AM 41.8869 -84.2400 118° Southeast 344 396 11,000  Level Cleveland Center
08:20AM 41.8644 -84.1606 111° Southeast 350 403 11,000  Level Cleveland Center
08:21AM 41.8622 -84.1019 93° East 349 402 11,000  Level Cleveland Center
08:21AM 41.8761 -84.0525 69° East 358 412 11,000  Level Cleveland Center
08:22AM 41.9011 -83.9814 65° Northeast 323 372 11,000  Level Cleveland Center
08:22AM 41.9214 -83.9350 60° Northeast 359 413 11,000  Level Cleveland Center
08:23AM 41.9625 -83.8811 44° Northeast 325 374 11,000  Level Cleveland Center
08:23AM 41.9969 -83.8439 39° Northeast 358 412 11,000  Level Cleveland Center
08:24AM 42.0381 -83.7900 44° Northeast 333 383 11,000  Level Cleveland Center
08:24AM 42.0792 -83.7389 43° Northeast 358 412 11,000  Level Cleveland Center
08:25AM 42.1014 -83.6897 59° Northeast 346 398 11,000  Level Cleveland Center
08:25AM 42.1361 -83.6325 51° Northeast 358 412 11,000  Level Cleveland Center
08:26AM 42.1603 -83.5861 55° Northeast 351 404 11,000  Level Cleveland Center
08:26AM 42.2008 -83.5517 32° Northeast 306 352 11,000  Level Cleveland Center
08:27AM 42.2286 -83.5306 29° Northeast 313 360 11,000 -420 Level Cleveland Center
08:27AM 42.2686 -83.5097 21° North 242 278 10,600 -1,020 Descending Cleveland Center
08:28AM 42.2919 -83.4942 26° Northeast 264 304 10,000 -1,200 Descending Cleveland Center
08:28AM 42.3303 -83.4650 29° Northeast 236 272 9,400 -1,320 Descending Cleveland Center
08:29AM 42.3494 -83.4489 32° Northeast 243 280 8,700 -1,860 Descending Cleveland Center
08:29AM 42.3769 -83.4306 26° Northeast 236 272 7,900 -1,800 Descending Cleveland Center
08:30AM 42.4244 -83.3681 44° Northeast 236 272 6,100 -1,560 Descending Cleveland Center
08:31AM 42.4119 -83.2831 101° East 193 222 4,700 -1,260 Descending Cleveland Center
08:32AM 42.3617 -83.2836 180° South 172 198 3,500 -1,200 Descending Cleveland Center